createdAt,value
2017-07-22T00:00:16.339Z,11.80
2017-07-22T00:02:43.897Z,10.27
2017-07-22T00:05:11.494Z,10.23
2017-07-22T00:07:39.046Z,12.60
2017-07-22T00:10:06.618Z,13.03
2017-07-22T00:12:34.132Z,13.63
2017-07-22T00:15:01.743Z,13.37
2017-07-22T00:17:29.249Z,19.43
2017-07-22T00:19:56.758Z,15.33
2017-07-22T00:22:24.313Z,15.40
2017-07-22T00:24:51.889Z,24.50
2017-07-22T00:27:19.467Z,15.53
2017-07-22T00:29:47.097Z,15.00
2017-07-22T00:32:14.600Z,13.60
2017-07-22T00:34:42.107Z,12.50
2017-07-22T00:37:09.731Z,18.43
2017-07-22T00:39:37.884Z,17.30
2017-07-22T00:42:05.427Z,21.27
2017-07-22T00:44:33.048Z,25.00
2017-07-22T00:47:00.563Z,22.47
2017-07-22T00:49:28.183Z,22.20
2017-07-22T00:51:55.796Z,23.57
2017-07-22T00:54:23.320Z,21.57
2017-07-22T00:56:50.903Z,23.80
2017-07-22T00:59:18.483Z,22.70
2017-07-22T01:01:46.041Z,24.53
2017-07-22T01:04:13.734Z,30.13
2017-07-22T01:06:41.311Z,28.50
2017-07-22T01:09:09.480Z,27.07
2017-07-22T01:11:37.279Z,37.20
2017-07-22T01:14:05.685Z,50.73
2017-07-22T01:16:33.199Z,33.40
2017-07-22T01:19:00.715Z,31.03
2017-07-22T01:21:28.382Z,24.23
2017-07-22T01:23:55.923Z,25.93
2017-07-22T01:26:24.121Z,24.87
2017-07-22T01:28:51.676Z,24.97
2017-07-22T01:31:19.278Z,33.50
2017-07-22T01:33:47.003Z,26.27
2017-07-22T01:36:15.259Z,30.20
2017-07-22T01:38:43.144Z,33.97
2017-07-22T01:41:10.663Z,36.23
2017-07-22T01:43:38.275Z,50.87
2017-07-22T01:46:05.787Z,33.23
2017-07-22T01:48:33.328Z,22.50
2017-07-22T01:51:01.986Z,34.40
2017-07-22T01:53:29.503Z,23.53
2017-07-22T01:55:57.244Z,20.10
2017-07-22T01:58:25.623Z,21.33
2017-07-22T02:00:53.386Z,36.13
2017-07-22T02:03:21.004Z,34.30
2017-07-22T02:05:48.811Z,36.90
2017-07-22T02:08:16.646Z,42.40
2017-07-22T02:10:44.191Z,37.17
2017-07-22T02:13:11.783Z,33.40
2017-07-22T02:15:39.283Z,24.60
2017-07-22T02:18:06.798Z,27.90
2017-07-22T02:20:34.384Z,22.50
2017-07-22T02:23:01.908Z,34.60
2017-07-22T02:25:29.420Z,30.10
2017-07-22T02:27:56.972Z,30.57
2017-07-22T02:30:24.515Z,32.97
2017-07-22T02:32:52.082Z,34.53
2017-07-22T02:35:20.607Z,34.33
2017-07-22T02:37:48.112Z,28.40
2017-07-22T02:40:15.630Z,30.63
2017-07-22T02:42:43.190Z,37.80
2017-07-22T02:45:10.740Z,31.33
2017-07-22T02:47:38.272Z,29.97
2017-07-22T02:50:05.952Z,32.87
2017-07-22T02:52:33.464Z,38.57
2017-07-22T02:55:00.978Z,43.47
2017-07-22T02:57:28.540Z,32.07
2017-07-22T02:59:56.067Z,36.27
2017-07-22T03:02:23.623Z,39.10
2017-07-22T03:04:51.205Z,37.57
2017-07-22T03:07:18.715Z,38.97
2017-07-22T03:09:46.244Z,40.93
2017-07-22T03:12:13.952Z,28.00
2017-07-22T03:14:41.474Z,32.47
2017-07-22T03:17:08.991Z,33.10
2017-07-22T03:19:36.550Z,45.67
2017-07-22T03:22:04.088Z,46.90
2017-07-22T03:24:31.619Z,40.03
2017-07-22T03:26:59.187Z,40.90
2017-07-22T03:29:26.694Z,47.10
2017-07-22T03:31:54.314Z,40.80
2017-07-22T03:34:21.877Z,33.10
2017-07-22T03:36:49.399Z,44.13
2017-07-22T03:39:17.026Z,34.70
2017-07-22T03:41:44.587Z,31.63
2017-07-22T03:44:12.097Z,24.93
2017-07-22T03:46:39.604Z,24.40
2017-07-22T03:49:07.166Z,17.00
2017-07-22T03:51:34.862Z,15.00
2017-07-22T03:54:02.385Z,24.13
2017-07-22T03:56:29.935Z,18.97
2017-07-22T03:58:57.442Z,24.10
2017-07-22T04:01:24.947Z,28.97
2017-07-22T04:03:52.590Z,30.03
2017-07-22T04:06:20.601Z,33.03
2017-07-22T04:08:48.107Z,28.23
2017-07-22T04:11:15.785Z,29.47
2017-07-22T04:13:43.355Z,17.83
2017-07-22T04:16:10.924Z,23.63
2017-07-22T04:18:38.548Z,22.67
2017-07-22T04:21:06.057Z,34.67
2017-07-22T04:23:33.562Z,40.13
2017-07-22T04:26:01.120Z,49.87
2017-07-22T04:28:28.618Z,39.23
2017-07-22T04:30:56.167Z,38.73
2017-07-22T04:33:23.722Z,33.27
2017-07-22T04:35:51.227Z,31.73
2017-07-22T04:38:18.731Z,36.77
2017-07-22T04:40:46.859Z,31.67
2017-07-22T04:43:14.362Z,30.37
2017-07-22T04:45:41.871Z,28.47
2017-07-22T04:48:09.415Z,23.93
2017-07-22T04:50:36.951Z,26.23
2017-07-22T04:53:04.504Z,32.50
2017-07-22T04:55:32.063Z,32.23
2017-07-22T04:57:59.576Z,29.87
2017-07-22T05:00:27.074Z,27.97
2017-07-22T05:02:54.628Z,22.87
2017-07-22T05:05:22.195Z,29.07
2017-07-22T05:07:49.718Z,29.07
2017-07-22T05:10:17.263Z,28.23
2017-07-22T05:12:44.784Z,22.70
2017-07-22T05:15:12.296Z,21.83
2017-07-22T05:17:39.878Z,23.10
2017-07-22T05:20:07.475Z,15.83
2017-07-22T05:22:35.023Z,17.87
2017-07-22T05:25:02.579Z,15.70
2017-07-22T05:27:30.135Z,11.47
2017-07-22T05:29:57.640Z,23.63
2017-07-22T05:32:25.205Z,16.03
2017-07-22T05:34:52.755Z,13.23
2017-07-22T05:37:20.301Z,13.13
2017-07-22T05:39:47.884Z,7.83
2017-07-22T05:42:15.394Z,8.47
2017-07-22T05:44:43.175Z,8.70
2017-07-22T05:47:10.839Z,6.87
2017-07-22T05:49:38.336Z,5.50
2017-07-22T05:52:05.911Z,6.83
2017-07-22T05:54:33.474Z,9.50
2017-07-22T05:57:01.155Z,6.00
2017-07-22T05:59:28.657Z,7.97
2017-07-22T06:01:56.234Z,10.20
2017-07-22T06:04:23.743Z,7.57
2017-07-22T06:06:51.242Z,6.60
2017-07-22T06:09:18.811Z,8.10
2017-07-22T06:11:46.422Z,10.63
2017-07-22T06:14:14.819Z,9.67
2017-07-22T06:16:42.390Z,10.20
2017-07-22T06:19:09.887Z,7.93
2017-07-22T06:21:37.383Z,9.87
2017-07-22T06:24:05.003Z,9.90
2017-07-22T06:26:33.124Z,9.43
2017-07-22T06:29:00.654Z,5.93
2017-07-22T06:31:28.203Z,5.30
2017-07-22T06:33:55.700Z,7.07
2017-07-22T06:36:23.251Z,14.63
2017-07-22T06:38:50.891Z,8.83
2017-07-22T06:41:18.518Z,9.63
2017-07-22T06:43:46.033Z,8.10
2017-07-22T06:46:13.598Z,6.80
2017-07-22T06:48:41.131Z,9.50
2017-07-22T06:51:08.649Z,7.23
2017-07-22T06:53:36.207Z,10.53
2017-07-22T06:56:04.253Z,11.13
2017-07-22T06:58:31.796Z,9.60
2017-07-22T07:00:59.458Z,9.10
2017-07-22T07:03:26.912Z,11.93
2017-07-22T07:05:54.415Z,13.30
2017-07-22T07:08:22.011Z,8.67
2017-07-22T07:10:49.506Z,7.50
2017-07-22T07:13:17.002Z,5.67
2017-07-22T07:15:44.586Z,6.50
2017-07-22T07:18:12.124Z,8.50
2017-07-22T07:20:39.665Z,9.17
2017-07-22T07:23:07.267Z,6.53
2017-07-22T07:25:34.789Z,10.23
2017-07-22T07:28:02.319Z,7.23
2017-07-22T07:30:29.654Z,13.50
2017-07-22T07:32:57.152Z,7.67
2017-07-22T07:35:24.712Z,7.80
2017-07-22T07:37:52.343Z,6.03
2017-07-22T07:40:20.234Z,6.60
2017-07-22T07:42:47.754Z,6.93
2017-07-22T07:45:15.311Z,5.50
2017-07-22T07:47:42.814Z,6.40
2017-07-22T07:50:10.452Z,7.67
2017-07-22T07:52:38.067Z,7.03
2017-07-22T07:55:05.586Z,5.50
2017-07-22T07:57:33.090Z,13.53
2017-07-22T08:00:00.694Z,5.70
2017-07-22T08:02:28.211Z,7.47
2017-07-22T08:04:55.823Z,7.17
2017-07-22T08:07:23.456Z,7.43
2017-07-22T08:09:51.022Z,5.73
2017-07-22T08:12:18.523Z,7.40
2017-07-22T08:14:46.072Z,7.00
2017-07-22T08:17:13.575Z,9.13
2017-07-22T08:19:41.082Z,12.50
2017-07-22T08:22:08.671Z,11.30
2017-07-22T08:24:36.176Z,6.93
2017-07-22T08:27:03.681Z,6.00
2017-07-22T08:29:31.233Z,8.27
2017-07-22T08:31:58.791Z,6.10
2017-07-22T08:34:26.539Z,8.50
2017-07-22T08:36:54.111Z,6.93
2017-07-22T08:39:21.655Z,7.97
2017-07-22T08:41:49.167Z,7.43
2017-07-22T08:44:17.408Z,8.00
2017-07-22T08:46:44.911Z,6.30
2017-07-22T08:49:12.414Z,6.80
2017-07-22T08:51:39.979Z,8.47
2017-07-22T08:54:07.546Z,9.43
2017-07-22T08:56:35.166Z,6.77
2017-07-22T08:59:02.756Z,11.63
2017-07-22T09:01:30.281Z,7.73
2017-07-22T09:03:57.887Z,5.33
2017-07-22T09:06:25.506Z,5.83
2017-07-22T09:08:54.042Z,11.00
2017-07-22T09:11:21.564Z,8.50
2017-07-22T09:13:49.113Z,5.47
2017-07-22T09:16:16.648Z,5.30
2017-07-22T09:18:44.187Z,6.97
2017-07-22T09:21:11.831Z,6.10
2017-07-22T09:23:39.380Z,8.53
2017-07-22T09:26:06.882Z,5.43
2017-07-22T09:28:34.496Z,6.37
2017-07-22T09:31:02.009Z,4.90
2017-07-22T09:33:29.522Z,5.63
2017-07-22T09:35:57.083Z,5.93
2017-07-22T09:38:24.583Z,6.53
2017-07-22T09:40:52.134Z,5.13
2017-07-22T09:43:19.695Z,6.87
2017-07-22T09:45:47.202Z,6.00
2017-07-22T09:48:14.714Z,7.77
2017-07-22T09:50:42.262Z,6.33
2017-07-22T09:53:09.889Z,8.20
2017-07-22T09:55:37.399Z,6.80
2017-07-22T09:58:04.953Z,10.40
2017-07-22T10:00:32.447Z,5.40
2017-07-22T10:02:59.949Z,7.10
2017-07-22T10:05:27.508Z,5.87
2017-07-22T10:07:55.082Z,4.70
2017-07-22T10:10:22.639Z,5.40
2017-07-22T10:12:50.188Z,6.00
2017-07-22T10:15:17.742Z,5.97
2017-07-22T10:17:45.320Z,6.40
2017-07-22T10:20:12.877Z,7.13
2017-07-22T10:22:40.195Z,5.60
2017-07-22T10:25:07.703Z,5.37
2017-07-22T10:27:35.286Z,5.73
2017-07-22T10:30:02.803Z,6.43
2017-07-22T10:32:30.308Z,6.60
2017-07-22T10:34:57.927Z,6.40
2017-07-22T10:37:25.423Z,5.80
2017-07-22T10:39:52.922Z,6.80
2017-07-22T10:42:20.471Z,5.23
2017-07-22T10:44:47.971Z,9.70
2017-07-22T10:47:15.576Z,6.33
2017-07-22T10:49:43.134Z,10.50
2017-07-22T10:52:10.647Z,5.80
2017-07-22T10:54:38.176Z,5.47
2017-07-22T10:57:05.783Z,7.40
2017-07-22T10:59:33.284Z,7.30
2017-07-22T11:02:00.779Z,4.60
2017-07-22T11:04:28.343Z,7.53
2017-07-22T11:06:55.843Z,5.00
2017-07-22T11:09:23.434Z,5.60
2017-07-22T11:11:50.995Z,7.10
2017-07-22T11:14:18.508Z,5.13
2017-07-22T11:16:46.062Z,6.37
2017-07-22T11:19:13.671Z,8.00
2017-07-22T11:21:41.184Z,7.00
2017-07-22T11:24:08.696Z,6.00
2017-07-22T11:26:36.247Z,5.20
2017-07-22T11:29:03.751Z,5.43
2017-07-22T11:31:31.255Z,7.00
2017-07-22T11:33:58.890Z,5.07
2017-07-22T11:36:26.391Z,5.17
2017-07-22T11:38:53.909Z,6.67
2017-07-22T11:41:21.471Z,6.33
2017-07-22T11:43:49.054Z,6.67
2017-07-22T11:46:16.551Z,5.10
2017-07-22T11:48:44.099Z,5.23
2017-07-22T11:51:11.611Z,6.83
2017-07-22T11:53:39.106Z,8.40
2017-07-22T11:56:06.676Z,4.70
2017-07-22T11:58:34.535Z,7.73
2017-07-22T12:01:02.141Z,4.73
2017-07-22T12:03:29.737Z,8.00
2017-07-22T12:05:57.283Z,6.80
2017-07-22T12:08:24.829Z,6.57
2017-07-22T12:10:52.423Z,4.43
2017-07-22T12:13:19.940Z,5.73
2017-07-22T12:15:47.454Z,5.40
2017-07-22T12:18:15.046Z,5.07
2017-07-22T12:20:42.755Z,6.50
2017-07-22T12:23:10.267Z,9.33
2017-07-22T12:25:37.916Z,5.13
2017-07-22T12:28:05.435Z,6.77
2017-07-22T12:30:32.939Z,5.23
2017-07-22T12:33:01.091Z,4.50
2017-07-22T12:35:28.623Z,5.17
2017-07-22T12:37:56.202Z,5.50
2017-07-22T12:40:23.887Z,5.33
2017-07-22T12:42:51.394Z,5.53
2017-07-22T12:45:18.908Z,5.17
2017-07-22T12:47:46.454Z,6.40
2017-07-22T12:50:13.955Z,5.37
2017-07-22T12:52:41.464Z,5.83
2017-07-22T12:55:09.092Z,5.63
2017-07-22T12:57:36.588Z,6.40
2017-07-22T13:00:04.092Z,5.43
2017-07-22T13:02:31.648Z,8.27
2017-07-22T13:04:59.142Z,5.10
2017-07-22T13:07:26.647Z,6.27
2017-07-22T13:09:54.192Z,5.03
2017-07-22T13:12:21.690Z,5.20
2017-07-22T13:14:49.187Z,5.00
2017-07-22T13:17:16.746Z,8.20
2017-07-22T13:19:44.263Z,5.87
2017-07-22T13:22:11.771Z,6.70
2017-07-22T13:24:39.329Z,5.10
2017-07-22T13:27:06.831Z,5.00
2017-07-22T13:29:34.335Z,10.10
2017-07-22T13:32:01.895Z,6.70
2017-07-22T13:34:29.397Z,5.90
2017-07-22T13:39:30.848Z,6.90
2017-07-22T13:41:58.343Z,4.90
2017-07-22T13:44:25.852Z,6.07
2017-07-22T13:46:53.406Z,5.10
2017-07-22T13:49:20.914Z,5.93
2017-07-22T13:51:48.421Z,7.07
2017-07-22T13:54:15.976Z,7.23
2017-07-22T13:56:43.492Z,8.50
2017-07-22T13:59:10.995Z,6.80
2017-07-22T14:01:38.551Z,6.83
2017-07-22T14:04:06.060Z,5.10
2017-07-22T14:06:33.559Z,6.73
2017-07-22T14:09:01.107Z,7.20
2017-07-22T14:11:28.607Z,8.10
2017-07-22T14:13:56.123Z,7.00
2017-07-22T14:16:23.676Z,6.17
2017-07-22T14:18:51.191Z,8.33
2017-07-22T14:21:18.692Z,9.33
2017-07-22T14:23:46.243Z,5.63
2017-07-22T14:26:13.751Z,5.33
2017-07-22T14:28:41.039Z,5.37
2017-07-22T14:31:08.737Z,6.67
2017-07-22T14:33:36.246Z,7.07
2017-07-22T14:36:03.763Z,5.73
2017-07-22T14:38:31.331Z,7.50
2017-07-22T14:40:58.838Z,6.43
2017-07-22T14:43:26.336Z,7.60
2017-07-22T14:45:53.903Z,8.10
2017-07-22T14:48:21.414Z,7.37
2017-07-22T14:50:48.921Z,6.13
2017-07-22T14:53:16.471Z,6.70
2017-07-22T14:55:43.982Z,9.03
2017-07-22T14:58:11.490Z,6.53
2017-07-22T15:00:39.061Z,5.70
2017-07-22T15:03:06.563Z,6.93
2017-07-22T15:05:34.071Z,5.97
2017-07-22T15:08:01.644Z,11.00
2017-07-22T15:10:29.153Z,10.03
2017-07-22T15:12:56.671Z,7.43
2017-07-22T15:15:24.219Z,5.40
2017-07-22T15:17:51.719Z,6.80
2017-07-22T15:20:19.222Z,6.90
2017-07-22T15:22:46.812Z,6.97
2017-07-22T15:25:14.354Z,6.23
2017-07-22T15:27:41.912Z,5.77
2017-07-22T15:30:09.463Z,8.17
2017-07-22T15:32:36.977Z,6.10
2017-07-22T15:35:04.489Z,10.00
2017-07-22T15:37:32.040Z,6.80
2017-07-22T15:39:59.562Z,7.27
2017-07-22T15:42:27.071Z,7.03
2017-07-22T15:44:54.628Z,7.90
2017-07-22T15:47:22.138Z,6.77
2017-07-22T15:49:49.643Z,8.50
2017-07-22T15:52:17.200Z,5.57
2017-07-22T15:54:44.698Z,9.30
2017-07-22T15:57:12.200Z,6.53
2017-07-22T15:59:39.759Z,5.73
2017-07-22T16:02:07.264Z,6.03
2017-07-22T16:04:34.783Z,6.30
2017-07-22T16:07:02.343Z,5.80
2017-07-22T16:09:29.865Z,6.30
2017-07-22T16:11:57.372Z,7.50
2017-07-22T16:14:24.926Z,8.33
2017-07-22T16:16:52.430Z,6.73
2017-07-22T16:19:19.947Z,7.07
2017-07-22T16:21:47.511Z,10.73
2017-07-22T16:24:15.012Z,5.83
2017-07-22T16:26:42.528Z,7.83
2017-07-22T16:29:10.215Z,7.83
2017-07-22T16:31:37.727Z,8.57
2017-07-22T16:34:05.235Z,6.57
2017-07-22T16:36:32.794Z,7.27
2017-07-22T16:39:00.295Z,8.63
2017-07-22T16:41:27.810Z,11.63
2017-07-22T16:43:55.371Z,6.80
2017-07-22T16:46:22.881Z,7.23
2017-07-22T16:48:50.395Z,7.37
2017-07-22T16:51:17.963Z,12.10
2017-07-22T16:53:45.475Z,6.47
2017-07-22T16:56:12.972Z,7.63
2017-07-22T16:58:40.535Z,9.00
2017-07-22T17:01:08.041Z,7.30
2017-07-22T17:03:35.558Z,8.67
2017-07-22T17:06:03.131Z,16.10
2017-07-22T17:08:30.654Z,6.90
2017-07-22T17:10:58.163Z,7.20
2017-07-22T17:13:25.715Z,7.17
2017-07-22T17:15:53.244Z,10.53
2017-07-22T17:18:20.749Z,8.83
2017-07-22T17:20:48.309Z,7.80
2017-07-22T17:23:15.807Z,9.23
2017-07-22T17:25:43.319Z,8.90
2017-07-22T17:28:10.905Z,9.00
2017-07-22T17:30:38.411Z,8.80
2017-07-22T17:33:05.911Z,8.73
2017-07-22T17:35:33.474Z,12.20
2017-07-22T17:38:00.980Z,12.27
2017-07-22T17:40:28.487Z,8.27
2017-07-22T17:42:56.061Z,8.83
2017-07-22T17:45:23.559Z,9.33
2017-07-22T17:47:51.063Z,8.03
2017-07-22T17:50:18.605Z,8.77
2017-07-22T17:52:46.111Z,9.60
2017-07-22T17:55:13.611Z,8.10
2017-07-22T17:57:41.171Z,13.40
2017-07-22T18:00:08.675Z,7.90
2017-07-22T18:02:36.181Z,15.93
2017-07-22T18:05:03.733Z,9.20
2017-07-22T18:07:31.237Z,9.37
2017-07-22T18:09:58.750Z,8.97
2017-07-22T18:12:26.301Z,7.20
2017-07-22T18:14:53.798Z,6.57
2017-07-22T18:17:21.300Z,7.97
2017-07-22T18:19:48.851Z,6.93
2017-07-22T18:22:16.352Z,8.57
2017-07-22T18:24:43.851Z,8.33
2017-07-22T18:27:11.403Z,13.83
2017-07-22T18:29:38.904Z,8.33
2017-07-22T18:32:06.409Z,9.83
2017-07-22T18:34:33.957Z,9.90
2017-07-22T18:37:01.471Z,13.93
2017-07-22T18:39:29.001Z,9.07
2017-07-22T18:41:56.555Z,8.50
2017-07-22T18:44:24.129Z,9.23
2017-07-22T18:46:51.631Z,9.93
2017-07-22T18:49:19.183Z,7.40
2017-07-22T18:51:46.692Z,10.60
2017-07-22T18:54:14.186Z,9.13
2017-07-22T18:56:41.741Z,9.10
2017-07-22T18:59:09.261Z,10.60
2017-07-22T19:01:36.765Z,10.17
2017-07-22T19:04:04.321Z,10.90
2017-07-22T19:06:31.828Z,12.33
2017-07-22T19:08:59.328Z,9.20
2017-07-22T19:11:26.893Z,9.80
2017-07-22T19:13:54.400Z,8.17
2017-07-22T19:16:21.911Z,9.93
2017-07-22T19:18:49.475Z,9.37
2017-07-22T19:21:16.980Z,11.07
2017-07-22T19:23:44.484Z,11.43
2017-07-22T19:26:12.113Z,8.80
2017-07-22T19:28:39.617Z,11.70
2017-07-22T19:31:07.127Z,9.33
2017-07-22T19:33:34.673Z,11.23
2017-07-22T19:36:02.175Z,10.13
2017-07-22T19:38:29.682Z,10.30
2017-07-22T19:40:57.264Z,9.97
2017-07-22T19:43:24.780Z,11.60
2017-07-22T19:45:52.283Z,12.33
2017-07-22T19:48:19.884Z,10.93
2017-07-22T19:50:47.391Z,8.47
2017-07-22T19:53:14.891Z,11.40
2017-07-22T19:55:42.445Z,8.83
2017-07-22T19:58:09.960Z,9.83
2017-07-22T20:00:37.467Z,7.83
2017-07-22T20:03:05.028Z,9.90
2017-07-22T20:05:32.531Z,15.73
2017-07-22T20:08:00.027Z,10.00
2017-07-22T20:10:27.591Z,9.87
2017-07-22T20:12:55.091Z,12.90
2017-07-22T20:15:22.593Z,8.80
2017-07-22T20:17:50.146Z,8.87
2017-07-22T20:20:17.658Z,9.43
2017-07-22T20:22:45.166Z,10.97
2017-07-22T20:25:12.712Z,8.73
2017-07-22T20:27:40.213Z,10.43
2017-07-22T20:30:07.787Z,14.40
2017-07-22T20:32:35.359Z,22.90
2017-07-22T20:35:02.876Z,10.57
2017-07-22T20:37:30.387Z,10.63
2017-07-22T20:39:58.047Z,14.17
2017-07-22T20:42:25.560Z,16.57
2017-07-22T20:44:53.078Z,10.37
2017-07-22T20:47:20.632Z,13.53
2017-07-22T20:49:48.390Z,14.63
2017-07-22T20:52:15.970Z,15.10
2017-07-22T20:54:43.482Z,11.67
2017-07-22T20:57:11.039Z,13.93
2017-07-22T20:59:38.535Z,15.67
2017-07-22T21:02:06.051Z,16.90
2017-07-22T21:04:33.619Z,21.50
2017-07-22T21:07:01.123Z,18.87
2017-07-22T21:09:28.639Z,12.00
2017-07-22T21:11:56.214Z,12.20
2017-07-22T21:14:23.718Z,12.40
2017-07-22T21:16:51.222Z,11.20
2017-07-22T21:19:18.827Z,9.87
2017-07-22T21:21:46.345Z,11.53
2017-07-22T21:24:13.875Z,13.07
2017-07-22T21:26:41.507Z,13.37
2017-07-22T21:29:09.037Z,15.63
2017-07-22T21:31:36.550Z,10.43
2017-07-22T21:34:04.145Z,13.50
2017-07-22T21:36:31.659Z,10.00
2017-07-22T21:38:59.176Z,9.10
2017-07-22T21:41:26.723Z,12.00
2017-07-22T21:43:54.222Z,10.00
2017-07-22T21:46:21.745Z,9.90
2017-07-22T21:48:49.316Z,9.63
2017-07-22T21:51:16.823Z,10.40
2017-07-22T21:53:44.401Z,11.60
2017-07-22T21:56:11.967Z,11.23
2017-07-22T21:58:39.487Z,12.53
2017-07-22T22:01:06.996Z,35.77
2017-07-22T22:03:34.636Z,38.20
2017-07-22T22:06:02.152Z,26.40
2017-07-22T22:08:29.658Z,27.20
2017-07-22T22:10:57.404Z,13.60
2017-07-22T22:13:24.915Z,13.70
2017-07-22T22:15:52.448Z,13.63
2017-07-22T22:18:20.044Z,14.10
2017-07-22T22:20:47.559Z,10.33
2017-07-22T22:23:15.115Z,12.63
2017-07-22T22:25:42.679Z,11.47
2017-07-22T22:28:10.187Z,11.77
2017-07-22T22:30:37.691Z,10.60
2017-07-22T22:33:05.251Z,9.30
2017-07-22T22:35:32.815Z,13.37
2017-07-22T22:38:00.328Z,14.17
2017-07-22T22:40:27.911Z,12.87
2017-07-22T22:42:55.462Z,14.20
2017-07-22T22:45:23.010Z,14.33
2017-07-22T22:47:51.374Z,13.63
2017-07-22T22:50:18.903Z,11.33
2017-07-22T22:52:46.399Z,13.37
2017-07-22T22:55:13.964Z,10.53
2017-07-22T22:57:41.469Z,12.20
2017-07-22T23:00:09.070Z,13.50
2017-07-22T23:02:36.622Z,9.80
2017-07-22T23:05:04.134Z,10.47
2017-07-22T23:07:31.642Z,12.87
2017-07-22T23:09:59.215Z,14.03
2017-07-22T23:12:26.703Z,9.90
2017-07-22T23:14:54.301Z,13.90
2017-07-22T23:17:21.851Z,12.13
2017-07-22T23:19:49.352Z,10.33
2017-07-22T23:22:16.851Z,8.87
2017-07-22T23:24:44.479Z,10.93
2017-07-22T23:27:11.983Z,10.40
2017-07-22T23:29:39.492Z,11.70
2017-07-22T23:32:07.096Z,12.23
2017-07-22T23:34:34.655Z,10.10
2017-07-22T23:37:02.154Z,10.63
2017-07-22T23:39:29.726Z,9.00
2017-07-22T23:41:57.226Z,9.60
2017-07-22T23:44:24.801Z,8.20
2017-07-22T23:46:52.375Z,9.40
2017-07-22T23:49:19.887Z,8.77
2017-07-22T23:51:47.395Z,9.90
2017-07-22T23:54:14.943Z,7.43
2017-07-22T23:56:42.546Z,11.00
2017-07-22T23:59:10.103Z,9.93
